createdAt,value
2017-09-26T00:00:59.787Z,34.83
2017-09-26T00:03:26.205Z,34.20
2017-09-26T00:05:52.794Z,31.00
2017-09-26T00:08:19.961Z,33.50
2017-09-26T00:10:46.375Z,33.00
2017-09-26T00:13:13.583Z,41.13
2017-09-26T00:15:39.991Z,32.60
2017-09-26T00:18:06.571Z,37.87
2017-09-26T00:20:33.020Z,33.90
2017-09-26T00:22:59.492Z,34.33
2017-09-26T00:25:25.957Z,34.90
2017-09-26T00:27:52.448Z,32.37
2017-09-26T00:30:18.892Z,37.93
2017-09-26T00:32:45.351Z,41.53
2017-09-26T00:35:11.857Z,45.10
2017-09-26T00:37:38.312Z,45.80
2017-09-26T00:40:04.801Z,41.37
2017-09-26T00:42:32.086Z,45.13
2017-09-26T00:44:58.523Z,43.73
2017-09-26T00:47:25.010Z,41.47
2017-09-26T00:49:52.212Z,44.90
2017-09-26T00:52:18.712Z,37.90
2017-09-26T00:54:45.886Z,38.53
2017-09-26T00:57:12.368Z,37.17
2017-09-26T00:59:38.835Z,36.73
2017-09-26T01:02:05.295Z,43.37
2017-09-26T01:04:31.767Z,43.00
2017-09-26T01:07:01.055Z,43.50
2017-09-26T01:09:27.551Z,37.50
2017-09-26T01:11:53.983Z,40.83
2017-09-26T01:14:20.498Z,39.60
2017-09-26T01:16:46.947Z,37.23
2017-09-26T01:19:13.376Z,39.07
2017-09-26T01:21:39.939Z,45.67
2017-09-26T01:24:06.434Z,44.77
2017-09-26T01:26:32.891Z,46.30
2017-09-26T01:28:59.348Z,45.53
2017-09-26T01:31:25.825Z,48.77
2017-09-26T01:33:53.035Z,44.67
2017-09-26T01:36:19.501Z,41.30
2017-09-26T01:38:46.736Z,43.30
2017-09-26T01:41:19.131Z,44.93
2017-09-26T01:43:46.496Z,40.67
2017-09-26T01:46:12.963Z,43.17
2017-09-26T01:48:39.523Z,42.00
2017-09-26T01:51:05.999Z,40.47
2017-09-26T01:53:32.458Z,41.43
2017-09-26T01:55:58.935Z,43.13
2017-09-26T02:01:25.175Z,42.40
2017-09-26T02:03:51.596Z,46.00
2017-09-26T02:06:18.242Z,45.50
2017-09-26T02:08:44.747Z,42.17
2017-09-26T02:11:11.204Z,49.03
2017-09-26T02:13:37.655Z,52.80
2017-09-26T02:16:04.284Z,48.63
2017-09-26T02:18:30.734Z,49.07
2017-09-26T02:20:57.931Z,43.20
2017-09-26T02:23:24.435Z,40.00
2017-09-26T02:25:51.015Z,48.30
2017-09-26T02:28:17.439Z,43.87
2017-09-26T02:30:44.001Z,47.63
2017-09-26T02:33:10.457Z,46.17
2017-09-26T02:35:37.650Z,42.53
2017-09-26T02:38:04.067Z,51.30
2017-09-26T02:40:30.692Z,46.97
2017-09-26T02:42:57.875Z,42.00
2017-09-26T02:45:24.307Z,49.00
2017-09-26T02:47:50.811Z,41.23
2017-09-26T02:50:17.243Z,46.87
2017-09-26T02:52:43.691Z,40.17
2017-09-26T02:55:10.120Z,54.47
2017-09-26T02:57:36.552Z,58.73
2017-09-26T03:00:03.036Z,48.93
2017-09-26T03:02:29.463Z,48.30
2017-09-26T03:04:56.015Z,42.77
2017-09-26T03:07:22.468Z,48.00
2017-09-26T03:09:49.675Z,45.30
2017-09-26T03:12:16.164Z,40.70
2017-09-26T03:14:42.627Z,46.40
2017-09-26T03:17:09.062Z,50.47
2017-09-26T03:19:35.491Z,54.23
2017-09-26T03:22:01.947Z,50.50
2017-09-26T03:24:28.429Z,55.43
2017-09-26T03:26:54.978Z,52.63
2017-09-26T03:29:21.420Z,50.40
2017-09-26T03:31:47.867Z,47.80
2017-09-26T03:34:14.269Z,46.87
2017-09-26T03:36:40.723Z,44.20
2017-09-26T03:39:07.182Z,48.00
2017-09-26T03:41:33.615Z,46.03
2017-09-26T03:44:00.069Z,42.97
2017-09-26T03:46:26.483Z,43.77
2017-09-26T03:48:52.947Z,43.37
2017-09-26T03:51:20.103Z,49.30
2017-09-26T03:53:47.303Z,51.57
2017-09-26T03:56:13.766Z,46.53
2017-09-26T03:58:40.229Z,48.47
2017-09-26T04:01:06.711Z,53.33
2017-09-26T04:03:33.180Z,61.77
2017-09-26T04:06:00.359Z,62.93
2017-09-26T04:08:26.918Z,51.23
2017-09-26T04:10:53.338Z,51.30
2017-09-26T04:13:19.777Z,50.10
2017-09-26T04:15:46.215Z,49.40
2017-09-26T04:18:12.775Z,54.40
2017-09-26T04:20:39.199Z,52.10
2017-09-26T04:23:05.634Z,55.60
2017-09-26T04:25:32.931Z,47.40
2017-09-26T04:27:59.355Z,58.90
2017-09-26T04:30:26.572Z,54.60
2017-09-26T04:32:52.998Z,53.17
2017-09-26T04:35:19.438Z,57.27
2017-09-26T04:37:45.855Z,55.93
2017-09-26T04:40:12.266Z,60.37
2017-09-26T04:42:38.719Z,55.50
2017-09-26T04:45:05.206Z,69.50
2017-09-26T04:47:31.662Z,61.57
2017-09-26T04:49:58.095Z,56.23
2017-09-26T04:52:24.659Z,53.30
2017-09-26T04:54:51.090Z,49.00
2017-09-26T04:57:17.531Z,59.50
2017-09-26T04:59:44.125Z,56.17
2017-09-26T05:02:10.611Z,64.60
2017-09-26T05:04:37.062Z,63.83
2017-09-26T05:07:04.263Z,58.80
2017-09-26T05:09:30.807Z,70.80
2017-09-26T05:11:57.271Z,64.03
2017-09-26T05:14:23.703Z,60.40
2017-09-26T05:16:50.158Z,62.43
2017-09-26T05:19:16.571Z,59.30
2017-09-26T05:21:43.730Z,59.07
2017-09-26T05:24:10.915Z,58.40
2017-09-26T05:26:37.381Z,69.60
2017-09-26T05:29:03.838Z,68.73
2017-09-26T05:31:31.031Z,58.77
2017-09-26T05:33:57.503Z,70.40
2017-09-26T05:36:24.011Z,66.93
2017-09-26T05:38:50.436Z,63.93
2017-09-26T05:41:16.890Z,64.27
2017-09-26T05:43:43.315Z,66.83
2017-09-26T05:46:09.765Z,63.67
2017-09-26T05:48:36.223Z,63.43
2017-09-26T05:51:03.406Z,55.23
2017-09-26T05:53:29.906Z,63.10
2017-09-26T05:55:57.059Z,54.43
2017-09-26T05:58:24.275Z,57.60
2017-09-26T06:00:50.698Z,59.77
2017-09-26T06:03:17.172Z,58.37
2017-09-26T06:05:44.354Z,52.03
2017-09-26T06:08:10.799Z,52.43
2017-09-26T06:10:37.406Z,53.40
2017-09-26T06:13:03.867Z,47.67
2017-09-26T06:15:30.495Z,53.33
2017-09-26T06:17:57.043Z,47.60
2017-09-26T06:20:23.491Z,52.80
2017-09-26T06:22:49.939Z,52.13
2017-09-26T06:25:16.424Z,53.53
2017-09-26T06:27:43.031Z,53.53
2017-09-26T06:30:10.215Z,54.00
2017-09-26T06:32:36.705Z,47.77
2017-09-26T06:35:03.167Z,51.53
2017-09-26T06:37:30.334Z,53.50
2017-09-26T06:39:56.813Z,49.43
2017-09-26T06:42:23.363Z,56.50
2017-09-26T06:44:49.791Z,48.13
2017-09-26T06:47:16.296Z,48.87
2017-09-26T06:49:42.774Z,51.93
2017-09-26T06:52:09.983Z,48.73
2017-09-26T06:54:36.472Z,51.63
2017-09-26T06:57:02.882Z,53.67
2017-09-26T06:59:30.071Z,52.57
2017-09-26T07:01:56.496Z,47.20
2017-09-26T07:04:22.943Z,46.77
2017-09-26T07:06:49.365Z,50.00
2017-09-26T07:09:15.799Z,47.63
2017-09-26T07:11:42.231Z,51.30
2017-09-26T07:14:08.724Z,50.50
2017-09-26T07:16:35.944Z,47.53
2017-09-26T07:19:02.438Z,47.37
2017-09-26T07:21:28.919Z,47.13
2017-09-26T07:23:55.366Z,49.53
2017-09-26T07:26:21.839Z,51.53
2017-09-26T07:28:48.286Z,47.07
2017-09-26T07:31:14.779Z,47.60
2017-09-26T07:33:42.070Z,46.67
2017-09-26T07:36:08.535Z,44.07
2017-09-26T07:38:34.970Z,47.30
2017-09-26T07:41:01.416Z,47.50
2017-09-26T07:43:27.870Z,43.63
2017-09-26T07:45:55.127Z,47.57
2017-09-26T07:48:22.366Z,45.83
2017-09-26T07:50:49.539Z,42.53
2017-09-26T07:53:15.987Z,41.47
2017-09-26T07:55:42.416Z,39.10
2017-09-26T07:58:08.898Z,41.90
2017-09-26T08:00:36.591Z,41.67
2017-09-26T08:03:03.823Z,42.53
2017-09-26T08:05:32.322Z,40.27
2017-09-26T08:08:00.690Z,41.30
2017-09-26T08:10:27.877Z,38.93
2017-09-26T08:12:54.298Z,41.83
2017-09-26T08:15:20.803Z,41.20
2017-09-26T08:17:48.005Z,40.37
2017-09-26T08:20:14.433Z,45.27
2017-09-26T08:22:40.904Z,41.83
2017-09-26T08:25:07.342Z,41.83
2017-09-26T08:27:35.274Z,39.77
2017-09-26T08:30:01.780Z,41.20
2017-09-26T08:32:28.252Z,43.63
2017-09-26T08:34:54.871Z,40.90
2017-09-26T08:37:21.319Z,40.57
2017-09-26T08:39:47.783Z,40.53
2017-09-26T08:42:14.236Z,41.83
2017-09-26T08:44:41.423Z,37.90
2017-09-26T08:47:07.856Z,37.30
2017-09-26T08:49:34.368Z,41.90
2017-09-26T08:52:00.912Z,39.13
2017-09-26T08:54:27.352Z,40.27
2017-09-26T08:56:53.903Z,38.33
2017-09-26T08:59:20.322Z,37.43
2017-09-26T09:01:46.815Z,38.03
2017-09-26T09:04:13.984Z,36.97
2017-09-26T09:06:41.174Z,40.77
2017-09-26T09:09:07.619Z,38.33
2017-09-26T09:11:34.048Z,37.17
2017-09-26T09:14:00.514Z,37.53
2017-09-26T09:16:27.697Z,37.03
2017-09-26T09:18:54.118Z,36.00
2017-09-26T09:21:20.593Z,32.73
2017-09-26T09:23:47.010Z,32.43
2017-09-26T09:26:13.431Z,32.37
2017-09-26T09:28:39.882Z,34.27
2017-09-26T09:31:06.323Z,32.43
2017-09-26T09:33:32.966Z,33.13
2017-09-26T09:35:59.386Z,29.57
2017-09-26T09:38:25.807Z,28.37
2017-09-26T09:40:52.359Z,32.00
2017-09-26T09:43:18.782Z,34.10
2017-09-26T09:45:45.272Z,32.77
2017-09-26T09:48:12.451Z,32.97
2017-09-26T09:50:38.922Z,34.03
2017-09-26T09:53:05.368Z,31.30
2017-09-26T09:55:31.867Z,32.30
2017-09-26T09:57:58.370Z,31.37
2017-09-26T10:00:24.823Z,33.70
2017-09-26T10:02:51.443Z,32.47
2017-09-26T10:05:17.870Z,30.73
2017-09-26T10:07:44.313Z,32.73
2017-09-26T10:10:10.803Z,30.40
2017-09-26T10:12:37.247Z,30.63
2017-09-26T10:15:04.634Z,31.30
2017-09-26T10:17:31.096Z,29.37
2017-09-26T10:19:57.562Z,30.57
2017-09-26T10:22:24.007Z,28.93
2017-09-26T10:24:51.243Z,30.10
2017-09-26T10:27:17.834Z,30.40
2017-09-26T10:29:44.238Z,29.37
2017-09-26T10:32:11.452Z,28.10
2017-09-26T10:34:37.912Z,30.37
2017-09-26T10:37:05.114Z,28.80
2017-09-26T10:39:31.571Z,29.73
2017-09-26T10:41:58.022Z,26.37
2017-09-26T10:44:24.635Z,26.53
2017-09-26T10:46:51.306Z,24.80
2017-09-26T10:49:18.562Z,24.57
2017-09-26T10:51:45.755Z,23.87
2017-09-26T10:54:12.187Z,23.77
2017-09-26T10:56:38.632Z,25.07
2017-09-26T10:59:05.100Z,23.03
2017-09-26T11:01:32.326Z,23.83
2017-09-26T11:03:58.772Z,21.90
2017-09-26T11:06:25.211Z,22.87
2017-09-26T11:08:51.671Z,21.40
2017-09-26T11:11:18.130Z,23.17
2017-09-26T11:13:44.551Z,23.50
2017-09-26T11:16:11.015Z,23.23
2017-09-26T11:18:37.468Z,21.87
2017-09-26T11:21:04.685Z,22.70
2017-09-26T11:23:31.106Z,23.27
2017-09-26T11:25:57.634Z,23.33
2017-09-26T11:28:24.111Z,21.63
2017-09-26T11:30:50.511Z,21.50
2017-09-26T11:33:16.949Z,21.27
2017-09-26T11:35:43.394Z,23.20
2017-09-26T11:38:09.852Z,20.27
2017-09-26T11:40:36.376Z,21.17
2017-09-26T11:43:02.850Z,19.67
2017-09-26T11:45:30.013Z,18.97
2017-09-26T11:47:56.469Z,19.07
2017-09-26T11:50:22.919Z,19.37
2017-09-26T11:52:49.355Z,18.80
2017-09-26T11:55:15.847Z,18.70
2017-09-26T11:57:42.295Z,17.70
2017-09-26T12:00:08.747Z,16.53
2017-09-26T12:02:35.294Z,18.00
2017-09-26T12:05:01.744Z,15.90
2017-09-26T12:07:28.246Z,12.67
2017-09-26T12:09:54.675Z,14.80
2017-09-26T12:12:21.134Z,12.97
2017-09-26T12:14:48.435Z,12.40
2017-09-26T12:17:14.887Z,12.73
2017-09-26T12:19:41.323Z,13.50
2017-09-26T12:22:07.780Z,14.57
2017-09-26T12:27:22.994Z,14.67
2017-09-26T12:29:50.221Z,14.63
2017-09-26T12:32:16.710Z,14.30
2017-09-26T12:34:43.327Z,15.70
2017-09-26T12:37:09.804Z,14.47
2017-09-26T12:39:36.277Z,15.00
2017-09-26T12:42:03.495Z,15.00
2017-09-26T12:44:29.931Z,15.97
2017-09-26T12:46:56.397Z,14.07
2017-09-26T12:49:23.630Z,13.30
2017-09-26T12:51:50.071Z,15.20
2017-09-26T12:54:17.278Z,15.40
2017-09-26T12:56:43.735Z,14.67
2017-09-26T12:59:10.230Z,15.90
2017-09-26T13:01:36.680Z,16.93
2017-09-26T13:04:03.119Z,16.30
2017-09-26T13:06:29.602Z,15.47
2017-09-26T13:08:56.898Z,16.80
2017-09-26T13:11:23.324Z,16.03
2017-09-26T13:13:49.735Z,17.17
2017-09-26T13:16:16.218Z,16.53
2017-09-26T13:18:42.678Z,15.77
2017-09-26T13:21:09.120Z,16.80
2017-09-26T13:23:36.346Z,14.93
2017-09-26T13:26:02.978Z,16.43
2017-09-26T13:28:29.427Z,14.40
2017-09-26T13:30:55.962Z,14.80
2017-09-26T13:33:22.406Z,15.00
2017-09-26T13:35:49.619Z,14.13
2017-09-26T13:38:16.098Z,14.57
2017-09-26T13:40:43.268Z,14.90
2017-09-26T13:43:09.758Z,13.70
2017-09-26T13:45:36.206Z,14.17
2017-09-26T13:48:03.423Z,14.23
2017-09-26T13:50:29.924Z,16.50
2017-09-26T13:52:56.374Z,14.57
2017-09-26T13:55:22.834Z,14.00
2017-09-26T13:57:49.287Z,14.43
2017-09-26T14:00:16.573Z,14.60
2017-09-26T14:02:43.028Z,13.80
2017-09-26T14:05:09.558Z,13.97
2017-09-26T14:07:36.085Z,13.23
2017-09-26T14:10:02.495Z,12.87
2017-09-26T14:12:28.968Z,13.87
2017-09-26T14:14:55.394Z,15.00
2017-09-26T14:17:21.819Z,14.33
2017-09-26T14:19:48.463Z,13.67
2017-09-26T14:22:14.900Z,13.63
2017-09-26T14:24:41.437Z,12.83
2017-09-26T14:27:07.868Z,12.20
2017-09-26T14:29:34.436Z,12.30
2017-09-26T14:32:00.872Z,11.73
2017-09-26T14:34:27.418Z,12.50
2017-09-26T14:36:54.667Z,12.20
2017-09-26T14:39:21.856Z,11.47
2017-09-26T14:41:48.319Z,11.03
2017-09-26T14:44:14.744Z,13.27
2017-09-26T14:46:41.230Z,18.20
2017-09-26T14:49:08.514Z,22.10
2017-09-26T14:51:35.139Z,23.37
2017-09-26T14:54:01.643Z,25.67
2017-09-26T14:56:28.900Z,23.00
2017-09-26T14:58:56.221Z,23.27
2017-09-26T15:01:22.728Z,22.47
2017-09-26T15:03:49.211Z,23.33
2017-09-26T15:06:16.435Z,20.90
2017-09-26T15:08:43.034Z,22.00
2017-09-26T15:11:09.500Z,19.67
2017-09-26T15:13:35.959Z,19.23
2017-09-26T15:16:02.463Z,21.80
2017-09-26T15:18:28.956Z,21.60
2017-09-26T15:20:55.443Z,21.17
2017-09-26T15:23:21.902Z,21.50
2017-09-26T15:25:49.154Z,19.30
2017-09-26T15:28:16.434Z,18.33
2017-09-26T15:30:42.907Z,19.73
2017-09-26T15:33:09.390Z,22.17
2017-09-26T15:35:36.607Z,18.00
2017-09-26T15:38:03.912Z,19.07
2017-09-26T15:40:30.601Z,19.90
2017-09-26T15:42:57.121Z,19.67
2017-09-26T15:45:23.587Z,18.33
2017-09-26T15:47:50.759Z,18.93
2017-09-26T15:50:17.266Z,19.37
2017-09-26T15:52:44.459Z,18.90
2017-09-26T15:55:10.882Z,18.57
2017-09-26T15:57:37.379Z,18.03
2017-09-26T16:00:04.590Z,18.80
2017-09-26T16:02:31.102Z,16.03
2017-09-26T16:04:57.572Z,16.43
2017-09-26T16:07:24.040Z,15.53
2017-09-26T16:09:51.260Z,15.37
2017-09-26T16:12:19.303Z,14.90
2017-09-26T16:14:45.801Z,15.00
2017-09-26T16:17:13.159Z,14.60
2017-09-26T16:19:40.391Z,14.83
2017-09-26T16:22:06.819Z,15.20
2017-09-26T16:24:33.411Z,15.87
2017-09-26T16:26:59.845Z,16.00
2017-09-26T16:29:26.352Z,18.47
2017-09-26T16:31:53.574Z,15.60
2017-09-26T16:34:20.040Z,17.03
2017-09-26T16:36:46.509Z,17.17
2017-09-26T16:39:12.947Z,19.73
2017-09-26T16:41:39.406Z,17.60
2017-09-26T16:44:05.915Z,17.10
2017-09-26T16:46:32.364Z,17.27
2017-09-26T16:48:58.842Z,19.63
2017-09-26T16:51:25.491Z,17.63
2017-09-26T16:53:51.959Z,16.20
2017-09-26T16:56:18.679Z,17.97
2017-09-26T16:58:45.195Z,17.77
2017-09-26T17:01:11.664Z,18.03
2017-09-26T17:03:38.448Z,18.20
2017-09-26T17:06:05.642Z,17.57
2017-09-26T17:08:32.175Z,18.07
2017-09-26T17:10:58.622Z,18.87
2017-09-26T17:13:25.092Z,24.70
2017-09-26T17:15:52.300Z,23.23
2017-09-26T17:18:18.883Z,21.33
2017-09-26T17:20:46.056Z,21.60
2017-09-26T17:23:12.675Z,20.20
2017-09-26T17:25:39.144Z,18.53
2017-09-26T17:28:05.678Z,21.07
2017-09-26T17:30:32.254Z,18.93
2017-09-26T17:32:58.745Z,19.73
2017-09-26T17:35:25.262Z,19.03
2017-09-26T17:37:51.725Z,21.40
2017-09-26T17:40:18.200Z,18.60
2017-09-26T17:42:45.487Z,19.33
2017-09-26T17:45:11.955Z,19.40
2017-09-26T17:47:38.560Z,20.23
2017-09-26T17:50:05.031Z,19.73
2017-09-26T17:52:31.603Z,19.57
2017-09-26T17:54:58.824Z,21.17
2017-09-26T17:57:25.278Z,26.60
2017-09-26T17:59:52.487Z,21.40
2017-09-26T18:02:18.983Z,21.30
2017-09-26T18:04:45.472Z,21.70
2017-09-26T18:07:11.921Z,19.83
2017-09-26T18:09:39.876Z,21.37
2017-09-26T18:12:06.306Z,22.83
2017-09-26T18:14:32.825Z,22.03
2017-09-26T18:16:59.254Z,25.40
2017-09-26T18:19:25.685Z,21.30
2017-09-26T18:21:52.199Z,22.07
2017-09-26T18:24:18.887Z,22.73
2017-09-26T18:26:45.428Z,25.20
2017-09-26T18:29:12.647Z,24.60
2017-09-26T18:31:39.087Z,23.37
2017-09-26T18:34:05.597Z,25.70
2017-09-26T18:36:32.196Z,28.47
2017-09-26T18:38:59.396Z,27.57
2017-09-26T18:41:25.868Z,31.70
2017-09-26T18:43:53.337Z,28.43
2017-09-26T18:46:20.550Z,26.90
2017-09-26T18:48:47.158Z,23.07
2017-09-26T18:51:13.630Z,23.93
2017-09-26T18:53:40.128Z,25.47
2017-09-26T18:56:06.566Z,28.60
2017-09-26T18:58:33.072Z,26.07
2017-09-26T19:00:59.527Z,26.43
2017-09-26T19:03:25.981Z,26.30
2017-09-26T19:05:52.534Z,32.10
2017-09-26T19:08:19.195Z,25.97
2017-09-26T19:10:46.403Z,24.30
2017-09-26T19:13:12.934Z,24.93
2017-09-26T19:15:39.409Z,26.00
2017-09-26T19:18:05.907Z,25.17
2017-09-26T19:20:32.320Z,25.50
2017-09-26T19:22:58.804Z,27.30
2017-09-26T19:25:26.030Z,25.50
2017-09-26T19:27:52.493Z,22.93
2017-09-26T19:30:19.770Z,26.50
2017-09-26T19:32:46.180Z,21.93
2017-09-26T19:35:13.631Z,24.87
2017-09-26T19:37:40.822Z,25.47
2017-09-26T19:42:57.196Z,30.33
2017-09-26T19:45:23.700Z,26.17
2017-09-26T19:47:50.189Z,25.17
2017-09-26T19:50:16.666Z,24.00
2017-09-26T19:52:43.107Z,27.60
2017-09-26T19:55:09.567Z,31.83
2017-09-26T19:57:36.848Z,32.13
2017-09-26T20:00:03.352Z,34.13
2017-09-26T20:02:29.802Z,33.97
2017-09-26T20:04:57.009Z,22.57
2017-09-26T20:07:23.562Z,26.10
2017-09-26T20:09:50.023Z,24.83
2017-09-26T20:12:17.236Z,28.13
2017-09-26T20:14:43.700Z,26.33
2017-09-26T20:17:11.154Z,25.03
2017-09-26T20:19:38.365Z,24.00
2017-09-26T20:22:04.999Z,25.60
2017-09-26T20:24:31.500Z,27.43
2017-09-26T20:26:58.033Z,26.13
2017-09-26T20:29:24.543Z,26.40
2017-09-26T20:31:51.797Z,24.07
2017-09-26T20:34:19.020Z,25.17
2017-09-26T20:36:45.529Z,26.50
2017-09-26T20:39:12.086Z,26.70
2017-09-26T20:41:38.584Z,28.90
2017-09-26T20:44:05.187Z,24.00
2017-09-26T20:46:32.446Z,26.27
2017-09-26T20:48:59.713Z,14.97
2017-09-26T20:51:26.228Z,20.60
2017-09-26T20:53:53.538Z,17.90
2017-09-26T20:56:20.050Z,18.43
2017-09-26T20:58:46.549Z,19.47
2017-09-26T21:01:13.798Z,18.60
2017-09-26T21:03:41.025Z,14.97
2017-09-26T21:06:08.283Z,10.70
2017-09-26T21:08:35.515Z,7.80
2017-09-26T21:11:02.095Z,9.90
2017-09-26T21:13:29.330Z,10.57
2017-09-26T21:15:56.539Z,8.63
2017-09-26T21:18:23.037Z,7.50
2017-09-26T21:20:50.232Z,6.30
2017-09-26T21:23:16.776Z,6.17
2017-09-26T21:25:43.236Z,9.27
2017-09-26T21:28:10.426Z,8.63
2017-09-26T21:30:36.910Z,8.13
2017-09-26T21:33:03.361Z,7.90
2017-09-26T21:35:30.763Z,7.67
2017-09-26T21:37:57.205Z,7.53
2017-09-26T21:40:23.633Z,9.63
2017-09-26T21:42:50.082Z,12.90
2017-09-26T21:45:16.531Z,9.53
2017-09-26T21:47:43.076Z,8.90
2017-09-26T21:50:10.271Z,9.73
2017-09-26T21:52:36.770Z,10.87
2017-09-26T21:55:03.948Z,8.80
2017-09-26T21:57:30.524Z,10.60
2017-09-26T21:59:57.052Z,10.73
2017-09-26T22:02:23.708Z,9.83
2017-09-26T22:04:50.178Z,9.57
2017-09-26T22:07:16.676Z,11.10
2017-09-26T22:09:43.163Z,10.77
2017-09-26T22:12:09.643Z,12.03
2017-09-26T22:14:36.126Z,9.40
2017-09-26T22:17:02.559Z,11.17
2017-09-26T22:19:29.084Z,12.60
2017-09-26T22:21:55.534Z,13.70
2017-09-26T22:24:21.982Z,12.33
2017-09-26T22:26:48.446Z,9.83
2017-09-26T22:29:14.934Z,14.17
2017-09-26T22:31:41.407Z,14.60
2017-09-26T22:34:07.871Z,10.70
2017-09-26T22:36:35.050Z,9.50
2017-09-26T22:39:01.527Z,5.87
2017-09-26T22:41:27.987Z,7.30
2017-09-26T22:43:55.302Z,7.60
2017-09-26T22:46:22.474Z,8.23
2017-09-26T22:48:49.663Z,6.87
2017-09-26T22:51:16.128Z,9.40
2017-09-26T22:53:42.624Z,6.03
2017-09-26T22:56:09.063Z,6.30
2017-09-26T22:58:35.562Z,7.87
2017-09-26T23:01:02.731Z,10.13
2017-09-26T23:03:29.910Z,12.10
2017-09-26T23:05:56.490Z,13.90
2017-09-26T23:08:23.099Z,18.60
2017-09-26T23:10:49.679Z,20.97
2017-09-26T23:13:17.012Z,22.80
2017-09-26T23:15:43.455Z,23.63
2017-09-26T23:18:10.638Z,23.50
2017-09-26T23:20:37.332Z,23.40
2017-09-26T23:23:05.256Z,31.03
2017-09-26T23:25:31.693Z,28.07
2017-09-26T23:27:58.139Z,26.17
2017-09-26T23:30:24.548Z,32.73
2017-09-26T23:32:51.022Z,25.27
2017-09-26T23:35:17.455Z,27.00
2017-09-26T23:37:43.970Z,25.60
2017-09-26T23:40:10.530Z,24.20
2017-09-26T23:42:38.459Z,25.07
2017-09-26T23:45:05.126Z,23.80
2017-09-26T23:47:31.550Z,21.67
2017-09-26T23:49:58.022Z,23.37
2017-09-26T23:52:25.207Z,24.27
2017-09-26T23:54:51.879Z,22.03
2017-09-26T23:57:18.351Z,22.10
2017-09-26T23:59:45.534Z,18.60
